sensor_id;sensor_type;location;lat;lon;timestamp;P1;durP1;ratioP1;P2;durP2;ratioP2
19605;SDS011;9950;50.168;8.210;2023-02-20T00:01:57;17.98;;;8.95;;
19605;SDS011;9950;50.168;8.210;2023-02-20T00:04:24;18.60;;;10.05;;
19605;SDS011;9950;50.168;8.210;2023-02-20T00:06:51;18.52;;;9.63;;
19605;SDS011;9950;50.168;8.210;2023-02-20T00:09:18;18.50;;;10.00;;
19605;SDS011;9950;50.168;8.210;2023-02-20T00:11:46;20.15;;;10.93;;
19605;SDS011;9950;50.168;8.210;2023-02-20T00:14:13;16.30;;;8.93;;
19605;SDS011;9950;50.168;8.210;2023-02-20T00:16:41;17.73;;;9.77;;
19605;SDS011;9950;50.168;8.210;2023-02-20T00:19:09;18.63;;;8.68;;
19605;SDS011;9950;50.168;8.210;2023-02-20T00:21:36;20.80;;;10.50;;
19605;SDS011;9950;50.168;8.210;2023-02-20T00:24:03;20.42;;;9.05;;
19605;SDS011;9950;50.168;8.210;2023-02-20T00:26:31;17.67;;;9.52;;
19605;SDS011;9950;50.168;8.210;2023-02-20T00:28:58;17.73;;;9.02;;
19605;SDS011;9950;50.168;8.210;2023-02-20T00:31:25;20.80;;;9.90;;
19605;SDS011;9950;50.168;8.210;2023-02-20T00:33:52;18.38;;;9.50;;
19605;SDS011;9950;50.168;8.210;2023-02-20T00:36:21;21.08;;;10.20;;
19605;SDS011;9950;50.168;8.210;2023-02-20T00:38:48;16.95;;;9.23;;
19605;SDS011;9950;50.168;8.210;2023-02-20T00:41:15;17.75;;;9.80;;
19605;SDS011;9950;50.168;8.210;2023-02-20T00:43:42;16.95;;;9.00;;
19605;SDS011;9950;50.168;8.210;2023-02-20T00:46:10;16.38;;;8.65;;
19605;SDS011;9950;50.168;8.210;2023-02-20T00:48:37;18.20;;;8.63;;
19605;SDS011;9950;50.168;8.210;2023-02-20T00:51:05;16.13;;;8.52;;
19605;SDS011;9950;50.168;8.210;2023-02-20T00:53:33;13.00;;;8.07;;
19605;SDS011;9950;50.168;8.210;2023-02-20T00:56:00;15.85;;;8.40;;
19605;SDS011;9950;50.168;8.210;2023-02-20T00:58:27;14.05;;;7.53;;
19605;SDS011;9950;50.168;8.210;2023-02-20T01:00:54;16.77;;;7.72;;
19605;SDS011;9950;50.168;8.210;2023-02-20T01:03:22;13.10;;;7.63;;
19605;SDS011;9950;50.168;8.210;2023-02-20T01:05:49;16.13;;;7.97;;
19605;SDS011;9950;50.168;8.210;2023-02-20T01:08:16;16.83;;;8.25;;
19605;SDS011;9950;50.168;8.210;2023-02-20T01:10:44;16.15;;;8.15;;
19605;SDS011;9950;50.168;8.210;2023-02-20T01:13:11;69.03;;;9.60;;
19605;SDS011;9950;50.168;8.210;2023-02-20T01:15:39;34.28;;;9.38;;
19605;SDS011;9950;50.168;8.210;2023-02-20T01:18:06;13.85;;;7.65;;
19605;SDS011;9950;50.168;8.210;2023-02-20T01:20:33;16.88;;;8.18;;
19605;SDS011;9950;50.168;8.210;2023-02-20T01:23:00;16.63;;;9.25;;
19605;SDS011;9950;50.168;8.210;2023-02-20T01:25:28;18.60;;;8.48;;
19605;SDS011;9950;50.168;8.210;2023-02-20T01:27:56;17.08;;;8.18;;
19605;SDS011;9950;50.168;8.210;2023-02-20T01:30:23;19.48;;;7.78;;
19605;SDS011;9950;50.168;8.210;2023-02-20T01:32:50;19.58;;;8.27;;
19605;SDS011;9950;50.168;8.210;2023-02-20T01:35:18;14.88;;;7.70;;
19605;SDS011;9950;50.168;8.210;2023-02-20T01:37:45;15.93;;;8.13;;
19605;SDS011;9950;50.168;8.210;2023-02-20T01:40:13;16.20;;;7.55;;
19605;SDS011;9950;50.168;8.210;2023-02-20T01:42:41;14.80;;;6.93;;
19605;SDS011;9950;50.168;8.210;2023-02-20T01:45:15;17.45;;;7.10;;
19605;SDS011;9950;50.168;8.210;2023-02-20T01:47:43;15.38;;;6.25;;
19605;SDS011;9950;50.168;8.210;2023-02-20T01:50:10;13.70;;;6.85;;
19605;SDS011;9950;50.168;8.210;2023-02-20T01:52:38;15.52;;;7.75;;
19605;SDS011;9950;50.168;8.210;2023-02-20T01:55:07;12.90;;;7.07;;
19605;SDS011;9950;50.168;8.210;2023-02-20T01:57:36;18.08;;;7.95;;
19605;SDS011;9950;50.168;8.210;2023-02-20T02:00:05;16.60;;;7.65;;
19605;SDS011;9950;50.168;8.210;2023-02-20T02:02:36;16.48;;;7.32;;
19605;SDS011;9950;50.168;8.210;2023-02-20T02:05:04;15.20;;;6.95;;
19605;SDS011;9950;50.168;8.210;2023-02-20T02:07:31;16.73;;;8.27;;
19605;SDS011;9950;50.168;8.210;2023-02-20T02:09:59;15.77;;;7.05;;
19605;SDS011;9950;50.168;8.210;2023-02-20T02:12:28;15.93;;;8.10;;
19605;SDS011;9950;50.168;8.210;2023-02-20T02:14:55;13.93;;;6.80;;
19605;SDS011;9950;50.168;8.210;2023-02-20T02:23:14;16.45;;;6.80;;
19605;SDS011;9950;50.168;8.210;2023-02-20T02:25:50;15.52;;;7.22;;
19605;SDS011;9950;50.168;8.210;2023-02-20T02:33:50;17.83;;;7.53;;
19605;SDS011;9950;50.168;8.210;2023-02-20T02:39:02;17.02;;;7.05;;
19605;SDS011;9950;50.168;8.210;2023-02-20T02:41:37;16.00;;;7.63;;
19605;SDS011;9950;50.168;8.210;2023-02-20T02:44:07;17.35;;;8.00;;
19605;SDS011;9950;50.168;8.210;2023-02-20T02:46:38;18.05;;;8.10;;
19605;SDS011;9950;50.168;8.210;2023-02-20T02:49:07;16.83;;;8.20;;
19605;SDS011;9950;50.168;8.210;2023-02-20T02:51:38;15.68;;;7.82;;
19605;SDS011;9950;50.168;8.210;2023-02-20T02:54:11;20.10;;;9.05;;
19605;SDS011;9950;50.168;8.210;2023-02-20T02:56:39;21.40;;;9.05;;
19605;SDS011;9950;50.168;8.210;2023-02-20T02:59:08;18.55;;;9.05;;
19605;SDS011;9950;50.168;8.210;2023-02-20T03:01:36;17.92;;;8.75;;
19605;SDS011;9950;50.168;8.210;2023-02-20T03:04:05;22.73;;;10.85;;
19605;SDS011;9950;50.168;8.210;2023-02-20T03:06:33;23.35;;;11.65;;
19605;SDS011;9950;50.168;8.210;2023-02-20T03:09:03;25.08;;;13.13;;
19605;SDS011;9950;50.168;8.210;2023-02-20T03:11:33;23.35;;;11.73;;
19605;SDS011;9950;50.168;8.210;2023-02-20T03:14:01;22.40;;;10.93;;
19605;SDS011;9950;50.168;8.210;2023-02-20T03:16:49;20.23;;;9.15;;
19605;SDS011;9950;50.168;8.210;2023-02-20T03:19:19;18.73;;;9.13;;
19605;SDS011;9950;50.168;8.210;2023-02-20T03:21:50;17.50;;;9.02;;
19605;SDS011;9950;50.168;8.210;2023-02-20T03:24:19;22.50;;;10.20;;
19605;SDS011;9950;50.168;8.210;2023-02-20T03:26:49;17.23;;;8.07;;
19605;SDS011;9950;50.168;8.210;2023-02-20T03:29:17;18.55;;;9.07;;
19605;SDS011;9950;50.168;8.210;2023-02-20T03:31:49;19.75;;;8.15;;
19605;SDS011;9950;50.168;8.210;2023-02-20T03:34:34;18.88;;;9.35;;
19605;SDS011;9950;50.168;8.210;2023-02-20T03:37:19;19.10;;;8.85;;
19605;SDS011;9950;50.168;8.210;2023-02-20T03:40:06;18.00;;;10.15;;
19605;SDS011;9950;50.168;8.210;2023-02-20T03:42:55;18.33;;;7.80;;
19605;SDS011;9950;50.168;8.210;2023-02-20T03:45:42;18.60;;;8.63;;
19605;SDS011;9950;50.168;8.210;2023-02-20T03:48:10;26.95;;;10.38;;
19605;SDS011;9950;50.168;8.210;2023-02-20T03:50:39;18.98;;;8.85;;
19605;SDS011;9950;50.168;8.210;2023-02-20T03:53:24;17.75;;;7.90;;
19605;SDS011;9950;50.168;8.210;2023-02-20T03:55:52;20.92;;;9.32;;
19605;SDS011;9950;50.168;8.210;2023-02-20T03:58:22;21.60;;;10.15;;
19605;SDS011;9950;50.168;8.210;2023-02-20T04:00:51;16.45;;;9.13;;
19605;SDS011;9950;50.168;8.210;2023-02-20T04:03:20;19.35;;;8.52;;
19605;SDS011;9950;50.168;8.210;2023-02-20T04:05:48;28.67;;;10.20;;
19605;SDS011;9950;50.168;8.210;2023-02-20T04:08:17;21.35;;;9.70;;
19605;SDS011;9950;50.168;8.210;2023-02-20T04:10:46;22.17;;;10.00;;
19605;SDS011;9950;50.168;8.210;2023-02-20T04:13:14;23.45;;;9.85;;
19605;SDS011;9950;50.168;8.210;2023-02-20T04:15:44;22.88;;;10.02;;
19605;SDS011;9950;50.168;8.210;2023-02-20T04:18:12;24.63;;;9.90;;
19605;SDS011;9950;50.168;8.210;2023-02-20T04:20:39;23.08;;;11.05;;
19605;SDS011;9950;50.168;8.210;2023-02-20T04:23:07;24.75;;;10.52;;
19605;SDS011;9950;50.168;8.210;2023-02-20T04:25:36;22.42;;;10.60;;
19605;SDS011;9950;50.168;8.210;2023-02-20T04:28:06;24.17;;;9.40;;
19605;SDS011;9950;50.168;8.210;2023-02-20T04:30:33;16.73;;;8.95;;
19605;SDS011;9950;50.168;8.210;2023-02-20T04:33:02;25.55;;;11.73;;
19605;SDS011;9950;50.168;8.210;2023-02-20T04:35:29;23.60;;;9.50;;
19605;SDS011;9950;50.168;8.210;2023-02-20T04:37:56;25.17;;;9.93;;
19605;SDS011;9950;50.168;8.210;2023-02-20T04:40:23;20.67;;;8.88;;
19605;SDS011;9950;50.168;8.210;2023-02-20T04:42:51;24.08;;;11.55;;
19605;SDS011;9950;50.168;8.210;2023-02-20T04:45:18;20.35;;;9.52;;
19605;SDS011;9950;50.168;8.210;2023-02-20T04:47:45;26.63;;;10.88;;
19605;SDS011;9950;50.168;8.210;2023-02-20T04:50:16;23.48;;;10.15;;
19605;SDS011;9950;50.168;8.210;2023-02-20T04:52:44;22.58;;;10.93;;
19605;SDS011;9950;50.168;8.210;2023-02-20T04:55:12;26.33;;;10.73;;
19605;SDS011;9950;50.168;8.210;2023-02-20T04:57:39;22.27;;;10.95;;
19605;SDS011;9950;50.168;8.210;2023-02-20T05:00:06;24.90;;;10.20;;
19605;SDS011;9950;50.168;8.210;2023-02-20T05:02:35;22.60;;;9.73;;
19605;SDS011;9950;50.168;8.210;2023-02-20T05:05:03;26.42;;;10.45;;
19605;SDS011;9950;50.168;8.210;2023-02-20T05:07:32;20.63;;;9.05;;
19605;SDS011;9950;50.168;8.210;2023-02-20T05:09:59;21.83;;;9.63;;
19605;SDS011;9950;50.168;8.210;2023-02-20T05:12:26;20.40;;;8.90;;
19605;SDS011;9950;50.168;8.210;2023-02-20T05:14:53;44.53;;;10.02;;
19605;SDS011;9950;50.168;8.210;2023-02-20T05:17:20;109.43;;;14.27;;
19605;SDS011;9950;50.168;8.210;2023-02-20T05:19:48;34.22;;;9.45;;
19605;SDS011;9950;50.168;8.210;2023-02-20T05:22:15;62.25;;;10.05;;
19605;SDS011;9950;50.168;8.210;2023-02-20T05:24:45;21.65;;;9.23;;
19605;SDS011;9950;50.168;8.210;2023-02-20T05:27:14;24.10;;;9.80;;
19605;SDS011;9950;50.168;8.210;2023-02-20T05:29:44;20.80;;;9.65;;
19605;SDS011;9950;50.168;8.210;2023-02-20T05:32:12;20.73;;;10.25;;
19605;SDS011;9950;50.168;8.210;2023-02-20T05:34:39;21.15;;;9.85;;
19605;SDS011;9950;50.168;8.210;2023-02-20T05:37:06;21.13;;;8.75;;
19605;SDS011;9950;50.168;8.210;2023-02-20T05:39:33;21.13;;;8.82;;
19605;SDS011;9950;50.168;8.210;2023-02-20T05:42:02;19.20;;;9.30;;
19605;SDS011;9950;50.168;8.210;2023-02-20T05:44:29;19.40;;;8.90;;
19605;SDS011;9950;50.168;8.210;2023-02-20T05:46:56;22.13;;;9.85;;
19605;SDS011;9950;50.168;8.210;2023-02-20T05:49:23;22.33;;;10.52;;
19605;SDS011;9950;50.168;8.210;2023-02-20T05:51:51;23.85;;;10.60;;
19605;SDS011;9950;50.168;8.210;2023-02-20T05:54:18;25.30;;;9.75;;
19605;SDS011;9950;50.168;8.210;2023-02-20T05:56:46;20.20;;;9.23;;
19605;SDS011;9950;50.168;8.210;2023-02-20T05:59:16;23.35;;;9.98;;
19605;SDS011;9950;50.168;8.210;2023-02-20T06:01:43;22.77;;;9.90;;
19605;SDS011;9950;50.168;8.210;2023-02-20T06:04:10;24.95;;;9.57;;
19605;SDS011;9950;50.168;8.210;2023-02-20T06:06:38;22.25;;;9.77;;
19605;SDS011;9950;50.168;8.210;2023-02-20T06:09:06;23.70;;;9.65;;
19605;SDS011;9950;50.168;8.210;2023-02-20T06:11:34;25.45;;;9.93;;
19605;SDS011;9950;50.168;8.210;2023-02-20T06:14:02;20.02;;;9.00;;
19605;SDS011;9950;50.168;8.210;2023-02-20T06:16:31;25.65;;;9.60;;
19605;SDS011;9950;50.168;8.210;2023-02-20T06:18:58;23.13;;;8.40;;
19605;SDS011;9950;50.168;8.210;2023-02-20T06:21:25;20.88;;;8.77;;
19605;SDS011;9950;50.168;8.210;2023-02-20T06:23:53;19.58;;;8.30;;
19605;SDS011;9950;50.168;8.210;2023-02-20T06:26:21;26.25;;;8.10;;
19605;SDS011;9950;50.168;8.210;2023-02-20T06:28:48;21.08;;;8.52;;
19605;SDS011;9950;50.168;8.210;2023-02-20T06:31:20;20.52;;;7.68;;
19605;SDS011;9950;50.168;8.210;2023-02-20T06:33:48;16.02;;;7.07;;
19605;SDS011;9950;50.168;8.210;2023-02-20T06:36:19;17.30;;;7.47;;
19605;SDS011;9950;50.168;8.210;2023-02-20T06:38:46;15.88;;;7.05;;
19605;SDS011;9950;50.168;8.210;2023-02-20T06:41:13;18.55;;;7.05;;
19605;SDS011;9950;50.168;8.210;2023-02-20T06:43:41;24.48;;;8.05;;
19605;SDS011;9950;50.168;8.210;2023-02-20T06:46:08;19.90;;;9.13;;
19605;SDS011;9950;50.168;8.210;2023-02-20T06:48:42;17.85;;;7.60;;
19605;SDS011;9950;50.168;8.210;2023-02-20T06:51:10;22.08;;;8.00;;
19605;SDS011;9950;50.168;8.210;2023-02-20T06:53:37;20.73;;;8.90;;
19605;SDS011;9950;50.168;8.210;2023-02-20T06:56:07;24.23;;;8.30;;
19605;SDS011;9950;50.168;8.210;2023-02-20T06:58:35;18.95;;;8.38;;
19605;SDS011;9950;50.168;8.210;2023-02-20T07:01:02;23.85;;;9.23;;
19605;SDS011;9950;50.168;8.210;2023-02-20T07:03:29;17.73;;;8.48;;
19605;SDS011;9950;50.168;8.210;2023-02-20T07:05:56;18.63;;;8.43;;
19605;SDS011;9950;50.168;8.210;2023-02-20T07:08:25;24.88;;;10.25;;
19605;SDS011;9950;50.168;8.210;2023-02-20T07:10:52;25.17;;;9.73;;
19605;SDS011;9950;50.168;8.210;2023-02-20T07:13:20;21.58;;;10.68;;
19605;SDS011;9950;50.168;8.210;2023-02-20T07:15:47;20.80;;;10.15;;
19605;SDS011;9950;50.168;8.210;2023-02-20T07:18:14;23.65;;;10.05;;
19605;SDS011;9950;50.168;8.210;2023-02-20T07:20:42;25.75;;;11.27;;
19605;SDS011;9950;50.168;8.210;2023-02-20T07:23:09;24.10;;;10.52;;
19605;SDS011;9950;50.168;8.210;2023-02-20T07:25:38;20.50;;;10.45;;
19605;SDS011;9950;50.168;8.210;2023-02-20T07:28:05;25.60;;;10.55;;
19605;SDS011;9950;50.168;8.210;2023-02-20T07:30:32;22.05;;;10.45;;
19605;SDS011;9950;50.168;8.210;2023-02-20T07:33:00;20.75;;;11.25;;
19605;SDS011;9950;50.168;8.210;2023-02-20T07:35:27;26.45;;;11.05;;
19605;SDS011;9950;50.168;8.210;2023-02-20T07:37:54;18.10;;;10.57;;
19605;SDS011;9950;50.168;8.210;2023-02-20T07:40:21;21.05;;;10.60;;
19605;SDS011;9950;50.168;8.210;2023-02-20T07:42:50;26.25;;;10.73;;
19605;SDS011;9950;50.168;8.210;2023-02-20T07:45:17;25.90;;;11.60;;
19605;SDS011;9950;50.168;8.210;2023-02-20T07:47:44;22.90;;;10.65;;
19605;SDS011;9950;50.168;8.210;2023-02-20T07:50:12;23.75;;;12.15;;
19605;SDS011;9950;50.168;8.210;2023-02-20T07:52:39;27.63;;;10.65;;
19605;SDS011;9950;50.168;8.210;2023-02-20T07:55:06;29.08;;;11.27;;
19605;SDS011;9950;50.168;8.210;2023-02-20T07:57:34;22.85;;;11.00;;
19605;SDS011;9950;50.168;8.210;2023-02-20T08:00:03;21.58;;;10.57;;
19605;SDS011;9950;50.168;8.210;2023-02-20T08:02:31;19.65;;;11.15;;
19605;SDS011;9950;50.168;8.210;2023-02-20T08:04:58;22.40;;;9.93;;
19605;SDS011;9950;50.168;8.210;2023-02-20T08:07:25;17.95;;;9.15;;
19605;SDS011;9950;50.168;8.210;2023-02-20T08:09:52;22.73;;;9.85;;
19605;SDS011;9950;50.168;8.210;2023-02-20T08:12:20;22.55;;;9.40;;
19605;SDS011;9950;50.168;8.210;2023-02-20T08:14:48;19.15;;;8.30;;
19605;SDS011;9950;50.168;8.210;2023-02-20T08:17:17;19.35;;;8.27;;
19605;SDS011;9950;50.168;8.210;2023-02-20T08:19:44;14.43;;;7.68;;
19605;SDS011;9950;50.168;8.210;2023-02-20T08:22:11;23.45;;;9.23;;
19605;SDS011;9950;50.168;8.210;2023-02-20T08:24:38;19.98;;;7.55;;
19605;SDS011;9950;50.168;8.210;2023-02-20T08:27:05;12.80;;;7.15;;
19605;SDS011;9950;50.168;8.210;2023-02-20T08:29:32;11.40;;;7.25;;
19605;SDS011;9950;50.168;8.210;2023-02-20T08:32:00;12.55;;;6.40;;
19605;SDS011;9950;50.168;8.210;2023-02-20T08:34:28;11.82;;;6.20;;
19605;SDS011;9950;50.168;8.210;2023-02-20T08:36:55;13.25;;;5.53;;
19605;SDS011;9950;50.168;8.210;2023-02-20T08:39:22;13.73;;;5.47;;
19605;SDS011;9950;50.168;8.210;2023-02-20T08:41:50;10.65;;;5.43;;
19605;SDS011;9950;50.168;8.210;2023-02-20T08:44:18;9.50;;;4.57;;
19605;SDS011;9950;50.168;8.210;2023-02-20T08:46:45;7.70;;;4.85;;
19605;SDS011;9950;50.168;8.210;2023-02-20T08:49:12;10.18;;;5.03;;
19605;SDS011;9950;50.168;8.210;2023-02-20T08:51:43;9.93;;;4.63;;
19605;SDS011;9950;50.168;8.210;2023-02-20T08:54:10;8.68;;;4.88;;
19605;SDS011;9950;50.168;8.210;2023-02-20T08:56:38;11.20;;;4.95;;
19605;SDS011;9950;50.168;8.210;2023-02-20T08:59:05;11.77;;;5.07;;
19605;SDS011;9950;50.168;8.210;2023-02-20T09:01:32;10.93;;;4.80;;
19605;SDS011;9950;50.168;8.210;2023-02-20T09:03:59;10.55;;;4.65;;
19605;SDS011;9950;50.168;8.210;2023-02-20T09:06:27;9.55;;;4.47;;
19605;SDS011;9950;50.168;8.210;2023-02-20T09:08:55;8.35;;;4.70;;
19605;SDS011;9950;50.168;8.210;2023-02-20T09:11:23;8.73;;;4.65;;
19605;SDS011;9950;50.168;8.210;2023-02-20T09:13:50;8.43;;;4.88;;
19605;SDS011;9950;50.168;8.210;2023-02-20T09:16:18;9.25;;;4.70;;
19605;SDS011;9950;50.168;8.210;2023-02-20T09:18:46;7.75;;;4.70;;
19605;SDS011;9950;50.168;8.210;2023-02-20T09:21:13;12.98;;;4.35;;
19605;SDS011;9950;50.168;8.210;2023-02-20T09:23:41;7.72;;;4.47;;
19605;SDS011;9950;50.168;8.210;2023-02-20T09:26:09;10.35;;;4.57;;
19605;SDS011;9950;50.168;8.210;2023-02-20T09:28:36;8.20;;;4.50;;
19605;SDS011;9950;50.168;8.210;2023-02-20T09:31:04;10.70;;;5.40;;
19605;SDS011;9950;50.168;8.210;2023-02-20T09:33:31;7.18;;;4.35;;
19605;SDS011;9950;50.168;8.210;2023-02-20T09:35:58;10.80;;;4.75;;
19605;SDS011;9950;50.168;8.210;2023-02-20T09:38:26;9.20;;;4.45;;
19605;SDS011;9950;50.168;8.210;2023-02-20T09:40:54;9.55;;;5.10;;
19605;SDS011;9950;50.168;8.210;2023-02-20T09:43:25;6.43;;;4.25;;
19605;SDS011;9950;50.168;8.210;2023-02-20T09:45:57;10.10;;;4.43;;
19605;SDS011;9950;50.168;8.210;2023-02-20T09:48:32;9.85;;;5.22;;
19605;SDS011;9950;50.168;8.210;2023-02-20T09:51:02;9.73;;;4.90;;
19605;SDS011;9950;50.168;8.210;2023-02-20T09:53:30;10.32;;;4.68;;
19605;SDS011;9950;50.168;8.210;2023-02-20T09:55:59;9.10;;;4.40;;
19605;SDS011;9950;50.168;8.210;2023-02-20T09:58:32;9.13;;;5.40;;
19605;SDS011;9950;50.168;8.210;2023-02-20T10:01:04;6.60;;;3.97;;
19605;SDS011;9950;50.168;8.210;2023-02-20T10:03:33;10.77;;;4.28;;
19605;SDS011;9950;50.168;8.210;2023-02-20T10:06:07;9.65;;;4.22;;
19605;SDS011;9950;50.168;8.210;2023-02-20T10:08:37;8.65;;;4.10;;
19605;SDS011;9950;50.168;8.210;2023-02-20T10:11:04;8.27;;;4.03;;
19605;SDS011;9950;50.168;8.210;2023-02-20T10:13:38;6.28;;;3.50;;
19605;SDS011;9950;50.168;8.210;2023-02-20T10:16:09;7.47;;;3.60;;
19605;SDS011;9950;50.168;8.210;2023-02-20T10:18:43;8.10;;;3.60;;
19605;SDS011;9950;50.168;8.210;2023-02-20T10:21:14;6.05;;;3.03;;
19605;SDS011;9950;50.168;8.210;2023-02-20T10:23:44;7.65;;;3.50;;
19605;SDS011;9950;50.168;8.210;2023-02-20T10:26:14;4.38;;;3.20;;
19605;SDS011;9950;50.168;8.210;2023-02-20T10:28:46;4.03;;;2.78;;
19605;SDS011;9950;50.168;8.210;2023-02-20T10:31:17;6.63;;;3.25;;
19605;SDS011;9950;50.168;8.210;2023-02-20T10:33:50;5.65;;;2.92;;
19605;SDS011;9950;50.168;8.210;2023-02-20T10:36:19;6.55;;;3.13;;
19605;SDS011;9950;50.168;8.210;2023-02-20T10:38:50;5.10;;;2.40;;
19605;SDS011;9950;50.168;8.210;2023-02-20T10:41:19;4.75;;;2.40;;
19605;SDS011;9950;50.168;8.210;2023-02-20T10:43:52;3.67;;;2.15;;
19605;SDS011;9950;50.168;8.210;2023-02-20T10:46:22;4.85;;;2.50;;
19605;SDS011;9950;50.168;8.210;2023-02-20T10:48:52;4.80;;;2.00;;
19605;SDS011;9950;50.168;8.210;2023-02-20T10:51:24;4.93;;;2.05;;
19605;SDS011;9950;50.168;8.210;2023-02-20T10:53:53;4.00;;;2.40;;
19605;SDS011;9950;50.168;8.210;2023-02-20T10:56:23;4.93;;;2.20;;
19605;SDS011;9950;50.168;8.210;2023-02-20T10:58:54;5.30;;;2.42;;
19605;SDS011;9950;50.168;8.210;2023-02-20T11:01:23;6.32;;;2.65;;
19605;SDS011;9950;50.168;8.210;2023-02-20T11:03:51;7.13;;;2.47;;
19605;SDS011;9950;50.168;8.210;2023-02-20T11:06:22;3.33;;;2.58;;
19605;SDS011;9950;50.168;8.210;2023-02-20T11:08:51;6.60;;;2.55;;
19605;SDS011;9950;50.168;8.210;2023-02-20T11:11:19;4.38;;;2.47;;
19605;SDS011;9950;50.168;8.210;2023-02-20T11:13:46;6.47;;;2.75;;
19605;SDS011;9950;50.168;8.210;2023-02-20T11:16:19;4.35;;;2.50;;
19605;SDS011;9950;50.168;8.210;2023-02-20T11:18:47;5.15;;;2.30;;
19605;SDS011;9950;50.168;8.210;2023-02-20T11:21:19;5.78;;;2.63;;
19605;SDS011;9950;50.168;8.210;2023-02-20T11:24:00;4.57;;;2.33;;
19605;SDS011;9950;50.168;8.210;2023-02-20T11:26:42;5.65;;;2.38;;
19605;SDS011;9950;50.168;8.210;2023-02-20T11:29:10;8.00;;;2.65;;
19605;SDS011;9950;50.168;8.210;2023-02-20T11:31:40;3.83;;;2.50;;
19605;SDS011;9950;50.168;8.210;2023-02-20T11:34:13;4.47;;;2.22;;
19605;SDS011;9950;50.168;8.210;2023-02-20T11:36:41;4.32;;;2.50;;
19605;SDS011;9950;50.168;8.210;2023-02-20T11:39:16;4.03;;;2.30;;
19605;SDS011;9950;50.168;8.210;2023-02-20T11:41:45;4.85;;;2.47;;
19605;SDS011;9950;50.168;8.210;2023-02-20T11:49:36;5.47;;;2.67;;
19605;SDS011;9950;50.168;8.210;2023-02-20T11:52:08;5.18;;;2.90;;
19605;SDS011;9950;50.168;8.210;2023-02-20T11:54:35;4.40;;;2.50;;
19605;SDS011;9950;50.168;8.210;2023-02-20T11:57:03;3.63;;;2.55;;
19605;SDS011;9950;50.168;8.210;2023-02-20T11:59:32;4.30;;;2.75;;
19605;SDS011;9950;50.168;8.210;2023-02-20T12:07:54;3.92;;;2.42;;
19605;SDS011;9950;50.168;8.210;2023-02-20T12:10:23;4.18;;;2.35;;
19605;SDS011;9950;50.168;8.210;2023-02-20T12:12:52;5.47;;;2.70;;
19605;SDS011;9950;50.168;8.210;2023-02-20T12:15:22;4.47;;;3.00;;
19605;SDS011;9950;50.168;8.210;2023-02-20T12:20:38;5.43;;;2.80;;
19605;SDS011;9950;50.168;8.210;2023-02-20T12:23:11;5.63;;;2.72;;
19605;SDS011;9950;50.168;8.210;2023-02-20T12:25:44;5.20;;;2.97;;
19605;SDS011;9950;50.168;8.210;2023-02-20T12:28:15;4.00;;;2.88;;
19605;SDS011;9950;50.168;8.210;2023-02-20T12:30:53;6.63;;;3.00;;
19605;SDS011;9950;50.168;8.210;2023-02-20T12:33:29;4.93;;;2.78;;
19605;SDS011;9950;50.168;8.210;2023-02-20T12:35:58;6.93;;;3.08;;
19605;SDS011;9950;50.168;8.210;2023-02-20T12:38:34;5.40;;;2.72;;
19605;SDS011;9950;50.168;8.210;2023-02-20T12:41:08;5.40;;;2.78;;
19605;SDS011;9950;50.168;8.210;2023-02-20T12:43:42;6.53;;;2.80;;
19605;SDS011;9950;50.168;8.210;2023-02-20T12:46:11;4.80;;;2.83;;
19605;SDS011;9950;50.168;8.210;2023-02-20T12:48:42;6.53;;;2.90;;
19605;SDS011;9950;50.168;8.210;2023-02-20T12:51:23;7.85;;;2.67;;
19605;SDS011;9950;50.168;8.210;2023-02-20T12:54:05;6.70;;;2.90;;
19605;SDS011;9950;50.168;8.210;2023-02-20T12:56:48;4.70;;;3.38;;
19605;SDS011;9950;50.168;8.210;2023-02-20T12:59:21;6.63;;;2.80;;
19605;SDS011;9950;50.168;8.210;2023-02-20T13:01:50;6.80;;;2.83;;
19605;SDS011;9950;50.168;8.210;2023-02-20T13:04:21;4.50;;;2.53;;
19605;SDS011;9950;50.168;8.210;2023-02-20T13:06:51;6.32;;;2.75;;
19605;SDS011;9950;50.168;8.210;2023-02-20T13:09:23;5.57;;;2.60;;
19605;SDS011;9950;50.168;8.210;2023-02-20T13:11:54;5.53;;;2.85;;
19605;SDS011;9950;50.168;8.210;2023-02-20T13:14:24;5.03;;;2.55;;
19605;SDS011;9950;50.168;8.210;2023-02-20T13:16:56;5.72;;;3.33;;
19605;SDS011;9950;50.168;8.210;2023-02-20T13:19:25;4.00;;;2.60;;
19605;SDS011;9950;50.168;8.210;2023-02-20T13:21:53;4.70;;;2.40;;
19605;SDS011;9950;50.168;8.210;2023-02-20T13:24:32;3.92;;;2.33;;
19605;SDS011;9950;50.168;8.210;2023-02-20T13:27:00;6.80;;;2.60;;
19605;SDS011;9950;50.168;8.210;2023-02-20T13:29:31;4.40;;;2.60;;
19605;SDS011;9950;50.168;8.210;2023-02-20T13:31:59;4.15;;;2.45;;
19605;SDS011;9950;50.168;8.210;2023-02-20T13:34:37;5.30;;;2.50;;
19605;SDS011;9950;50.168;8.210;2023-02-20T13:37:05;4.50;;;2.47;;
19605;SDS011;9950;50.168;8.210;2023-02-20T13:39:53;3.30;;;2.15;;
19605;SDS011;9950;50.168;8.210;2023-02-20T13:42:30;3.85;;;2.33;;
19605;SDS011;9950;50.168;8.210;2023-02-20T13:44:57;5.18;;;2.63;;
19605;SDS011;9950;50.168;8.210;2023-02-20T13:50:28;3.92;;;2.33;;
19605;SDS011;9950;50.168;8.210;2023-02-20T13:52:58;3.30;;;2.20;;
19605;SDS011;9950;50.168;8.210;2023-02-20T13:55:27;3.75;;;2.28;;
19605;SDS011;9950;50.168;8.210;2023-02-20T13:57:55;3.90;;;2.33;;
19605;SDS011;9950;50.168;8.210;2023-02-20T14:00:24;3.10;;;2.00;;
19605;SDS011;9950;50.168;8.210;2023-02-20T14:02:52;3.55;;;1.80;;
19605;SDS011;9950;50.168;8.210;2023-02-20T14:05:21;4.07;;;2.03;;
19605;SDS011;9950;50.168;8.210;2023-02-20T14:07:49;2.80;;;1.95;;
19605;SDS011;9950;50.168;8.210;2023-02-20T14:10:17;3.33;;;1.85;;
19605;SDS011;9950;50.168;8.210;2023-02-20T14:12:54;3.50;;;1.98;;
19605;SDS011;9950;50.168;8.210;2023-02-20T14:15:22;3.65;;;1.75;;
19605;SDS011;9950;50.168;8.210;2023-02-20T14:17:50;5.38;;;2.00;;
19605;SDS011;9950;50.168;8.210;2023-02-20T14:20:19;4.32;;;2.03;;
19605;SDS011;9950;50.168;8.210;2023-02-20T14:25:30;4.03;;;1.77;;
19605;SDS011;9950;50.168;8.210;2023-02-20T14:28:12;3.28;;;1.75;;
19605;SDS011;9950;50.168;8.210;2023-02-20T14:30:39;2.70;;;1.60;;
19605;SDS011;9950;50.168;8.210;2023-02-20T14:33:18;3.95;;;1.90;;
19605;SDS011;9950;50.168;8.210;2023-02-20T14:35:53;3.60;;;1.65;;
19605;SDS011;9950;50.168;8.210;2023-02-20T14:38:28;3.35;;;1.88;;
19605;SDS011;9950;50.168;8.210;2023-02-20T14:40:58;2.80;;;1.65;;
19605;SDS011;9950;50.168;8.210;2023-02-20T14:43:27;3.13;;;1.80;;
19605;SDS011;9950;50.168;8.210;2023-02-20T14:45:58;2.95;;;1.73;;
19605;SDS011;9950;50.168;8.210;2023-02-20T14:48:26;4.05;;;1.83;;
19605;SDS011;9950;50.168;8.210;2023-02-20T14:51:04;2.67;;;1.40;;
19605;SDS011;9950;50.168;8.210;2023-02-20T14:53:34;4.32;;;1.58;;
19605;SDS011;9950;50.168;8.210;2023-02-20T14:56:08;4.75;;;1.65;;
19605;SDS011;9950;50.168;8.210;2023-02-20T14:58:37;4.45;;;1.70;;
19605;SDS011;9950;50.168;8.210;2023-02-20T15:01:12;4.75;;;2.10;;
19605;SDS011;9950;50.168;8.210;2023-02-20T15:03:39;2.78;;;1.73;;
19605;SDS011;9950;50.168;8.210;2023-02-20T15:06:09;4.20;;;1.73;;
19605;SDS011;9950;50.168;8.210;2023-02-20T15:08:38;3.85;;;1.80;;
19605;SDS011;9950;50.168;8.210;2023-02-20T15:11:06;5.22;;;1.70;;
19605;SDS011;9950;50.168;8.210;2023-02-20T15:13:35;3.08;;;1.73;;
19605;SDS011;9950;50.168;8.210;2023-02-20T15:16:06;2.88;;;1.85;;
19605;SDS011;9950;50.168;8.210;2023-02-20T15:18:34;5.05;;;2.15;;
19605;SDS011;9950;50.168;8.210;2023-02-20T15:21:02;4.18;;;1.77;;
19605;SDS011;9950;50.168;8.210;2023-02-20T15:23:31;4.10;;;2.30;;
19605;SDS011;9950;50.168;8.210;2023-02-20T15:25:58;6.03;;;2.10;;
19605;SDS011;9950;50.168;8.210;2023-02-20T15:28:45;5.03;;;2.17;;
19605;SDS011;9950;50.168;8.210;2023-02-20T15:31:20;3.53;;;2.10;;
19605;SDS011;9950;50.168;8.210;2023-02-20T15:33:50;5.45;;;2.35;;
19605;SDS011;9950;50.168;8.210;2023-02-20T15:36:18;2.22;;;1.90;;
19605;SDS011;9950;50.168;8.210;2023-02-20T15:38:46;3.95;;;1.73;;